createdAt,value
2018-08-16T00:00:08.904Z,19.40
2018-08-16T00:02:36.861Z,19.57
2018-08-16T00:05:04.856Z,19.17
2018-08-16T00:07:32.808Z,19.97
2018-08-16T00:10:00.804Z,19.47
2018-08-16T00:12:28.908Z,22.57
2018-08-16T00:14:56.872Z,20.43
2018-08-16T00:17:24.824Z,20.63
2018-08-16T00:19:52.855Z,20.10
2018-08-16T00:22:20.813Z,21.03
2018-08-16T00:24:48.789Z,21.33
2018-08-16T00:27:16.769Z,20.20
2018-08-16T00:29:44.732Z,21.80
2018-08-16T00:32:12.737Z,20.87
2018-08-16T00:34:40.700Z,20.63
2018-08-16T00:37:08.656Z,20.60
2018-08-16T00:39:36.609Z,21.67
2018-08-16T00:42:04.704Z,20.30
2018-08-16T00:44:32.645Z,20.17
2018-08-16T00:47:00.641Z,20.00
2018-08-16T00:49:28.624Z,19.97
2018-08-16T00:51:56.619Z,19.30
2018-08-16T00:54:24.585Z,19.43
2018-08-16T00:56:52.561Z,19.73
2018-08-16T00:59:20.525Z,19.53
2018-08-16T01:01:48.545Z,32.03
2018-08-16T01:04:16.526Z,20.60
2018-08-16T01:06:44.506Z,18.80
2018-08-16T01:09:12.494Z,19.40
2018-08-16T01:11:40.550Z,20.40
2018-08-16T01:14:09.229Z,19.03
2018-08-16T01:16:37.181Z,20.63
2018-08-16T01:19:05.154Z,19.93
2018-08-16T01:21:33.116Z,20.37
2018-08-16T01:24:01.338Z,21.47
2018-08-16T01:26:29.558Z,21.03
2018-08-16T01:28:57.762Z,21.17
2018-08-16T01:31:26.561Z,19.60
2018-08-16T01:33:55.278Z,20.93
2018-08-16T01:36:23.237Z,20.40
2018-08-16T01:38:51.482Z,20.77
2018-08-16T01:41:19.713Z,19.03
2018-08-16T01:43:47.701Z,20.00
2018-08-16T01:46:15.666Z,20.40
2018-08-16T01:48:43.660Z,20.50
2018-08-16T01:51:11.638Z,20.10
2018-08-16T01:53:39.604Z,19.63
2018-08-16T01:56:07.873Z,20.50
2018-08-16T01:58:36.161Z,21.70
2018-08-16T02:01:04.389Z,24.00
2018-08-16T02:03:32.650Z,22.20
2018-08-16T02:06:00.885Z,22.60
2018-08-16T02:08:29.125Z,21.00
2018-08-16T02:10:57.390Z,21.50
2018-08-16T02:13:25.342Z,21.43
2018-08-16T02:15:53.590Z,21.73
2018-08-16T02:18:21.849Z,21.30
2018-08-16T02:20:50.081Z,20.63
2018-08-16T02:23:18.373Z,20.30
2018-08-16T02:25:46.625Z,19.13
2018-08-16T02:28:14.874Z,22.57
2018-08-16T02:30:43.095Z,20.77
2018-08-16T02:33:11.326Z,20.67
2018-08-16T02:35:39.558Z,22.20
2018-08-16T02:38:07.774Z,21.83
2018-08-16T02:40:36.033Z,22.53
2018-08-16T02:43:04.304Z,22.63
2018-08-16T02:45:32.526Z,23.67
2018-08-16T02:48:00.731Z,23.25
2018-08-16T02:50:28.961Z,23.93
2018-08-16T02:52:57.182Z,24.43
2018-08-16T02:55:25.410Z,24.40
2018-08-16T02:57:53.634Z,24.53
2018-08-16T03:00:21.866Z,25.47
2018-08-16T03:02:50.106Z,25.53
2018-08-16T03:05:18.362Z,24.97
2018-08-16T03:07:46.610Z,25.63
2018-08-16T03:10:14.834Z,26.07
2018-08-16T03:12:43.065Z,25.60
2018-08-16T03:15:11.418Z,26.00
2018-08-16T03:17:39.990Z,26.63
2018-08-16T03:20:08.390Z,25.85
2018-08-16T03:22:36.914Z,25.83
2018-08-16T03:25:05.206Z,27.17
2018-08-16T03:27:33.410Z,26.37
2018-08-16T03:30:01.645Z,27.23
2018-08-16T03:32:29.858Z,28.20
2018-08-16T03:34:57.858Z,30.67
2018-08-16T03:37:25.829Z,28.73
2018-08-16T03:39:53.793Z,27.07
2018-08-16T03:42:21.818Z,28.37
2018-08-16T03:44:49.794Z,28.87
2018-08-16T03:47:17.793Z,27.73
2018-08-16T03:49:45.755Z,26.57
2018-08-16T03:52:13.727Z,27.93
2018-08-16T03:54:41.694Z,24.97
2018-08-16T03:57:09.663Z,26.60
2018-08-16T03:59:37.710Z,25.07
2018-08-16T04:02:05.690Z,25.27
2018-08-16T04:04:33.651Z,25.07
2018-08-16T04:07:01.643Z,25.77
2018-08-16T04:09:29.659Z,25.97
2018-08-16T04:11:57.626Z,27.30
2018-08-16T04:14:25.613Z,26.07
2018-08-16T04:16:53.571Z,24.83
2018-08-16T04:19:21.511Z,25.00
2018-08-16T04:21:49.472Z,27.07
2018-08-16T04:24:17.464Z,34.83
2018-08-16T04:26:45.512Z,26.33
2018-08-16T04:29:13.664Z,27.33
2018-08-16T04:31:41.639Z,25.60
2018-08-16T04:34:09.695Z,26.47
2018-08-16T04:36:37.744Z,26.13
2018-08-16T04:39:06.436Z,28.13
2018-08-16T04:41:34.432Z,31.50
2018-08-16T04:44:02.404Z,24.57
2018-08-16T04:46:30.548Z,24.97
2018-08-16T04:48:59.873Z,25.23
2018-08-16T04:51:28.133Z,23.43
2018-08-16T04:53:57.114Z,22.97
2018-08-16T04:56:25.308Z,24.10
2018-08-16T04:58:53.507Z,23.80
2018-08-16T05:01:21.724Z,23.73
2018-08-16T05:03:49.949Z,24.80
2018-08-16T05:06:18.160Z,25.07
2018-08-16T05:08:46.405Z,25.07
2018-08-16T05:11:14.414Z,24.03
2018-08-16T05:13:42.405Z,22.63
2018-08-16T05:16:10.385Z,22.87
2018-08-16T05:18:44.784Z,23.70
2018-08-16T05:21:12.790Z,23.53
2018-08-16T05:23:41.029Z,21.97
2018-08-16T05:26:09.241Z,24.53
2018-08-16T05:28:37.205Z,21.23
2018-08-16T05:31:05.197Z,23.03
2018-08-16T05:33:33.245Z,21.63
2018-08-16T05:36:01.245Z,26.13
2018-08-16T05:38:29.200Z,22.00
2018-08-16T05:40:57.281Z,21.87
2018-08-16T05:43:25.282Z,22.57
2018-08-16T05:45:53.301Z,22.03
2018-08-16T05:48:21.345Z,21.27
2018-08-16T05:50:49.392Z,21.73
2018-08-16T05:53:17.309Z,20.73
2018-08-16T05:55:45.274Z,23.87
2018-08-16T05:58:13.404Z,25.03
2018-08-16T06:00:41.426Z,20.03
2018-08-16T06:03:09.389Z,20.70
2018-08-16T06:05:37.382Z,21.47
2018-08-16T06:08:05.550Z,22.27
2018-08-16T06:10:33.522Z,22.07
2018-08-16T06:13:01.505Z,19.37
2018-08-16T06:15:29.505Z,23.47
2018-08-16T06:17:57.834Z,18.97
2018-08-16T06:20:25.947Z,20.37
2018-08-16T06:22:54.010Z,20.80
2018-08-16T06:25:21.975Z,20.30
2018-08-16T06:27:49.950Z,21.47
2018-08-16T06:30:18.337Z,17.83
2018-08-16T06:32:46.534Z,17.93
2018-08-16T06:35:14.762Z,21.60
2018-08-16T06:37:42.746Z,20.37
2018-08-16T06:40:11.767Z,17.90
2018-08-16T06:42:39.766Z,22.57
2018-08-16T06:45:08.619Z,17.80
2018-08-16T06:47:36.595Z,18.93
2018-08-16T06:50:04.630Z,19.93
2018-08-16T06:52:32.853Z,17.47
2018-08-16T06:55:02.275Z,17.07
2018-08-16T06:57:30.235Z,17.87
2018-08-16T06:59:58.234Z,17.73
2018-08-16T07:02:26.239Z,17.13
2018-08-16T07:04:54.750Z,17.33
2018-08-16T07:07:22.915Z,16.10
2018-08-16T07:09:51.151Z,16.80
2018-08-16T07:12:19.507Z,16.93
2018-08-16T07:14:47.573Z,16.00
2018-08-16T07:17:15.575Z,16.50
2018-08-16T07:19:43.532Z,15.90
2018-08-16T07:22:11.947Z,16.97
2018-08-16T07:24:39.949Z,19.00
2018-08-16T07:27:07.896Z,16.70
2018-08-16T07:29:35.899Z,16.10
2018-08-16T07:32:03.928Z,15.43
2018-08-16T07:34:32.095Z,16.50
2018-08-16T07:37:00.603Z,18.60
2018-08-16T07:39:28.671Z,15.37
2018-08-16T07:41:57.375Z,16.03
2018-08-16T07:44:25.372Z,14.40
2018-08-16T07:46:53.336Z,15.37
2018-08-16T07:49:21.318Z,14.50
2018-08-16T07:51:49.295Z,14.10
2018-08-16T07:54:17.259Z,13.17
2018-08-16T07:56:45.220Z,15.10
2018-08-16T07:59:13.252Z,12.57
2018-08-16T08:01:41.193Z,14.63
2018-08-16T08:04:10.779Z,16.67
2018-08-16T08:06:38.840Z,13.70
2018-08-16T08:09:07.821Z,14.27
2018-08-16T08:11:35.752Z,12.73
2018-08-16T08:14:03.909Z,13.87
2018-08-16T08:16:31.885Z,14.43
2018-08-16T08:18:59.929Z,12.83
2018-08-16T08:21:27.932Z,13.17
2018-08-16T08:23:55.976Z,13.30
2018-08-16T08:26:23.976Z,12.23
2018-08-16T08:28:52.228Z,12.10
2018-08-16T08:31:20.461Z,13.47
2018-08-16T08:33:48.716Z,14.87
2018-08-16T08:36:22.333Z,12.60
2018-08-16T08:38:50.357Z,12.63
2018-08-16T08:41:18.377Z,14.03
2018-08-16T08:43:51.909Z,14.07
2018-08-16T08:46:19.869Z,12.57
2018-08-16T08:48:48.098Z,13.37
2018-08-16T08:51:16.337Z,12.63
2018-08-16T08:54:56.161Z,11.87
2018-08-16T08:57:36.608Z,11.23
2018-08-16T09:00:06.193Z,12.20
2018-08-16T09:02:34.572Z,13.60
2018-08-16T09:05:02.885Z,14.27
2018-08-16T09:07:31.250Z,13.67
2018-08-16T09:11:13.494Z,13.40
2018-08-16T09:13:54.549Z,11.47
2018-08-16T09:16:25.589Z,12.27
2018-08-16T09:18:54.006Z,12.53
2018-08-16T09:21:22.218Z,12.80
2018-08-16T09:23:50.576Z,12.07
2018-08-16T09:26:24.477Z,13.43
2018-08-16T09:28:52.781Z,13.93
2018-08-16T09:31:32.396Z,12.83
2018-08-16T09:34:22.266Z,13.27
2018-08-16T09:36:50.676Z,12.60
2018-08-16T09:39:19.511Z,13.43
2018-08-16T09:41:47.727Z,14.17
2018-08-16T09:44:15.939Z,14.30
2018-08-16T09:47:01.599Z,14.87
2018-08-16T09:49:32.330Z,14.00
2018-08-16T09:52:00.746Z,14.97
2018-08-16T09:54:28.978Z,15.00
2018-08-16T09:56:58.598Z,15.87
2018-08-16T09:59:26.883Z,14.87
2018-08-16T10:01:55.128Z,14.13
2018-08-16T10:04:23.387Z,13.70
2018-08-16T10:06:51.654Z,15.53
2018-08-16T10:09:22.119Z,13.97
2018-08-16T10:11:50.484Z,15.03
2018-08-16T10:14:18.843Z,14.07
2018-08-16T10:16:46.826Z,15.23
2018-08-16T10:19:14.808Z,14.37
2018-08-16T10:21:42.807Z,13.90
2018-08-16T10:24:11.088Z,15.03
2018-08-16T10:26:39.367Z,14.47
2018-08-16T10:29:08.035Z,13.83
2018-08-16T10:31:36.268Z,15.37
2018-08-16T10:34:04.707Z,15.47
2018-08-16T10:36:32.971Z,14.23
2018-08-16T10:39:01.253Z,14.53
2018-08-16T10:41:29.933Z,14.67
2018-08-16T10:43:59.072Z,15.93
2018-08-16T10:46:27.417Z,14.03
2018-08-16T10:48:55.660Z,15.03
2018-08-16T10:51:23.925Z,15.27
2018-08-16T10:53:52.161Z,14.30
2018-08-16T10:56:20.377Z,16.00
2018-08-16T10:58:49.337Z,15.20
2018-08-16T11:01:17.680Z,16.93
2018-08-16T11:03:50.750Z,14.80
2018-08-16T11:06:18.993Z,16.57
2018-08-16T11:08:47.209Z,16.03
2018-08-16T11:11:15.453Z,16.27
2018-08-16T11:13:43.685Z,15.07
2018-08-16T11:16:12.168Z,14.13
2018-08-16T11:18:40.672Z,15.15
2018-08-16T11:21:08.889Z,14.60
2018-08-16T11:23:39.069Z,19.92
2018-08-16T11:26:07.409Z,14.85
2018-08-16T11:28:35.681Z,14.43
2018-08-16T11:31:04.018Z,14.40
2018-08-16T11:33:32.366Z,15.50
2018-08-16T11:36:00.583Z,14.95
2018-08-16T11:38:28.864Z,15.93
2018-08-16T11:40:57.083Z,15.38
2018-08-16T11:43:25.351Z,15.32
2018-08-16T11:45:53.739Z,15.35
2018-08-16T11:48:22.127Z,14.58
2018-08-16T11:50:50.408Z,16.73
2018-08-16T11:53:18.615Z,16.02
2018-08-16T11:55:46.831Z,15.55
2018-08-16T11:58:15.087Z,16.40
2018-08-16T12:00:43.296Z,15.60
2018-08-16T12:03:11.588Z,14.68
2018-08-16T12:05:39.803Z,14.25
2018-08-16T12:08:08.063Z,15.85
2018-08-16T12:10:36.591Z,17.42
2018-08-16T12:13:04.824Z,18.13
2018-08-16T12:15:33.131Z,18.07
2018-08-16T12:18:01.392Z,19.23
2018-08-16T12:20:29.644Z,17.05
2018-08-16T12:22:57.931Z,17.45
2018-08-16T12:25:26.187Z,16.93
2018-08-16T12:27:54.439Z,17.37
2018-08-16T12:30:22.664Z,16.67
2018-08-16T12:32:50.921Z,17.27
2018-08-16T12:35:19.233Z,16.32
2018-08-16T12:37:47.487Z,17.20
2018-08-16T12:40:15.692Z,18.43
2018-08-16T12:42:43.920Z,21.62
2018-08-16T12:45:12.184Z,15.48
2018-08-16T12:47:40.497Z,15.28
2018-08-16T12:50:08.993Z,15.70
2018-08-16T12:52:37.328Z,14.25
2018-08-16T12:55:05.591Z,16.15
2018-08-16T12:57:34.024Z,16.82
2018-08-16T13:00:02.236Z,17.10
2018-08-16T13:02:30.800Z,16.93
2018-08-16T13:04:59.948Z,17.57
2018-08-16T13:07:28.248Z,15.45
2018-08-16T13:09:56.488Z,17.07
2018-08-16T13:12:24.765Z,18.82
2018-08-16T13:14:52.999Z,15.93
2018-08-16T13:17:21.210Z,17.02
2018-08-16T13:19:49.500Z,16.65
2018-08-16T13:22:17.707Z,16.50
2018-08-16T13:24:45.929Z,17.95
2018-08-16T13:27:14.256Z,19.07
2018-08-16T13:29:42.408Z,15.40
2018-08-16T13:32:10.637Z,16.73
2018-08-16T13:34:38.874Z,15.53
2018-08-16T13:37:07.284Z,16.60
2018-08-16T13:39:36.741Z,15.28
2018-08-16T13:42:04.993Z,15.93
2018-08-16T13:44:33.221Z,15.20
2018-08-16T13:47:01.439Z,17.48
2018-08-16T13:49:29.714Z,14.40
2018-08-16T13:51:57.993Z,15.55
2018-08-16T13:54:26.217Z,15.83
2018-08-16T13:56:54.462Z,16.07
2018-08-16T13:59:22.765Z,15.25
2018-08-16T14:01:51.126Z,15.00
2018-08-16T14:04:19.348Z,15.50
2018-08-16T14:06:47.582Z,14.23
2018-08-16T14:09:16.042Z,14.23
2018-08-16T14:11:44.285Z,13.32
2018-08-16T14:14:12.485Z,15.25
2018-08-16T14:16:40.740Z,13.65
2018-08-16T14:19:09.017Z,13.68
2018-08-16T14:21:37.250Z,14.07
2018-08-16T14:24:05.798Z,13.60
2018-08-16T14:26:34.059Z,12.90
2018-08-16T14:29:02.281Z,12.47
2018-08-16T14:31:30.633Z,13.68
2018-08-16T14:33:58.861Z,13.15
2018-08-16T14:36:27.182Z,12.55
2018-08-16T14:38:55.506Z,12.35
2018-08-16T14:41:23.714Z,14.70
2018-08-16T14:43:51.939Z,12.30
2018-08-16T14:46:20.177Z,10.53
2018-08-16T14:48:48.438Z,9.73
2018-08-16T14:51:16.740Z,11.10
2018-08-16T14:53:44.998Z,12.75
2018-08-16T14:56:13.379Z,10.82
2018-08-16T14:58:41.675Z,11.35
2018-08-16T15:01:09.894Z,12.77
2018-08-16T15:03:38.198Z,10.63
2018-08-16T15:06:06.462Z,11.83
2018-08-16T15:08:34.754Z,11.15
2018-08-16T15:11:02.990Z,9.70
2018-08-16T15:13:31.267Z,10.10
2018-08-16T15:15:59.522Z,12.25
2018-08-16T15:18:27.730Z,9.20
2018-08-16T15:20:55.946Z,9.90
2018-08-16T15:23:24.143Z,9.85
2018-08-16T15:25:52.426Z,9.28
2018-08-16T15:28:21.154Z,9.58
2018-08-16T15:30:49.547Z,8.63
2018-08-16T15:33:18.844Z,9.18
2018-08-16T15:35:47.122Z,8.78
2018-08-16T15:38:15.367Z,8.73
2018-08-16T15:40:43.662Z,8.70
2018-08-16T15:43:12.346Z,9.00
2018-08-16T15:45:40.623Z,8.95
2018-08-16T15:48:14.747Z,10.40
2018-08-16T15:50:43.999Z,9.13
2018-08-16T15:53:12.211Z,9.13
2018-08-16T15:55:40.471Z,8.68
2018-08-16T15:58:10.562Z,9.53
2018-08-16T16:03:13.371Z,9.57
2018-08-16T16:05:41.706Z,8.88
2018-08-16T16:08:09.839Z,9.85
2018-08-16T16:10:38.112Z,9.43
2018-08-16T16:13:06.331Z,10.95
2018-08-16T16:15:34.547Z,10.65
2018-08-16T16:18:02.863Z,10.13
2018-08-16T16:20:31.236Z,10.90
2018-08-16T16:22:59.919Z,10.68
2018-08-16T16:25:28.380Z,9.88
2018-08-16T16:27:56.776Z,21.20
2018-08-16T16:30:25.062Z,9.25
2018-08-16T16:32:53.352Z,11.10
2018-08-16T16:35:21.628Z,11.03
2018-08-16T16:37:49.960Z,10.63
2018-08-16T16:40:18.260Z,10.68
2018-08-16T16:42:46.667Z,11.78
2018-08-16T16:45:15.456Z,11.07
2018-08-16T16:47:43.688Z,11.73
2018-08-16T16:50:12.076Z,10.00
2018-08-16T16:52:40.324Z,10.58
2018-08-16T16:55:08.620Z,10.75
2018-08-16T16:57:37.315Z,11.22
2018-08-16T17:00:07.744Z,10.23
2018-08-16T17:02:36.756Z,10.40
2018-08-16T17:05:05.189Z,12.17
2018-08-16T17:07:34.412Z,12.05
2018-08-16T17:10:03.480Z,12.50
2018-08-16T17:12:31.757Z,12.50
2018-08-16T17:15:00.616Z,13.67
2018-08-16T17:17:28.697Z,11.80
2018-08-16T17:19:56.828Z,10.50
2018-08-16T17:22:24.945Z,10.03
2018-08-16T17:24:52.953Z,12.10
2018-08-16T17:27:21.101Z,9.90
2018-08-16T17:29:49.324Z,10.37
2018-08-16T17:32:17.540Z,10.23
2018-08-16T17:34:45.640Z,11.00
2018-08-16T17:37:13.644Z,9.83
2018-08-16T17:39:41.656Z,10.93
2018-08-16T17:42:09.785Z,10.77
2018-08-16T17:44:37.780Z,11.43
2018-08-16T17:47:05.917Z,10.60
2018-08-16T17:49:33.991Z,10.40
2018-08-16T17:52:02.116Z,11.53
2018-08-16T17:54:30.101Z,10.20
2018-08-16T17:56:58.202Z,10.90
2018-08-16T17:59:26.489Z,10.87
2018-08-16T18:01:54.573Z,10.43
2018-08-16T18:04:22.638Z,11.23
2018-08-16T18:06:50.777Z,11.23
2018-08-16T18:09:18.806Z,11.50
2018-08-16T18:11:46.782Z,12.27
2018-08-16T18:14:14.822Z,11.77
2018-08-16T18:16:42.957Z,11.90
2018-08-16T18:19:10.930Z,13.22
2018-08-16T18:21:39.107Z,11.90
2018-08-16T18:24:07.239Z,10.93
2018-08-16T18:26:35.162Z,11.30
2018-08-16T18:29:03.286Z,10.97
2018-08-16T18:31:31.344Z,12.17
2018-08-16T18:33:59.326Z,14.17
2018-08-16T18:36:27.622Z,11.67
2018-08-16T18:38:55.610Z,11.63
2018-08-16T18:41:23.810Z,11.70
2018-08-16T18:43:52.523Z,12.07
2018-08-16T18:46:20.839Z,12.13
2018-08-16T18:48:49.042Z,11.67
2018-08-16T18:51:17.312Z,12.53
2018-08-16T18:53:52.421Z,12.27
2018-08-16T18:56:20.691Z,11.57
2018-08-16T18:58:48.943Z,13.73
2018-08-16T19:01:17.247Z,12.73
2018-08-16T19:03:45.606Z,11.30
2018-08-16T19:06:13.856Z,13.60
2018-08-16T19:08:42.859Z,13.03
2018-08-16T19:11:11.328Z,11.35
2018-08-16T19:13:39.536Z,11.43
2018-08-16T19:16:09.394Z,12.05
2018-08-16T19:18:37.788Z,14.63
2018-08-16T19:21:06.427Z,12.03
2018-08-16T19:23:34.796Z,12.77
2018-08-16T19:26:03.135Z,12.17
2018-08-16T19:28:31.879Z,13.50
2018-08-16T19:31:01.088Z,11.83
2018-08-16T19:33:29.620Z,11.53
2018-08-16T19:35:57.915Z,12.17
2018-08-16T19:38:27.260Z,11.37
2018-08-16T19:40:55.523Z,12.73
2018-08-16T19:43:23.820Z,11.33
2018-08-16T19:45:52.040Z,11.47
2018-08-16T19:48:20.401Z,11.73
2018-08-16T19:50:49.030Z,12.23
2018-08-16T19:53:17.739Z,12.67
2018-08-16T19:55:45.939Z,12.50
2018-08-16T19:58:14.240Z,13.10
2018-08-16T20:00:42.480Z,12.73
2018-08-16T20:03:10.787Z,11.60
2018-08-16T20:05:39.460Z,14.10
2018-08-16T20:08:07.711Z,11.13
2018-08-16T20:10:36.615Z,11.80
2018-08-16T20:13:05.295Z,11.27
2018-08-16T20:15:33.527Z,11.47
2018-08-16T20:18:02.614Z,11.53
2018-08-16T20:20:30.848Z,11.53
2018-08-16T20:22:59.096Z,12.33
2018-08-16T20:25:27.372Z,12.03
2018-08-16T20:27:55.576Z,11.20
2018-08-16T20:30:23.922Z,11.80
2018-08-16T20:32:52.072Z,12.97
2018-08-16T20:35:20.300Z,11.90
2018-08-16T20:37:48.537Z,12.23
2018-08-16T20:40:16.764Z,12.50
2018-08-16T20:42:44.968Z,12.80
2018-08-16T20:45:13.396Z,13.60
2018-08-16T20:47:41.625Z,12.73
2018-08-16T20:50:09.862Z,13.37
2018-08-16T20:52:38.142Z,12.13
2018-08-16T20:55:06.544Z,12.77
2018-08-16T20:57:34.777Z,12.70
2018-08-16T21:00:03.028Z,12.60
2018-08-16T21:02:31.256Z,13.03
2018-08-16T21:04:59.489Z,14.20
2018-08-16T21:07:27.734Z,12.30
2018-08-16T21:09:55.982Z,12.50
2018-08-16T21:12:24.237Z,12.93
2018-08-16T21:14:52.228Z,13.00
2018-08-16T21:17:20.192Z,13.90
2018-08-16T21:19:48.153Z,12.87
2018-08-16T21:22:16.141Z,12.80
2018-08-16T21:24:44.120Z,12.63
2018-08-16T21:27:12.149Z,12.57
2018-08-16T21:29:40.153Z,12.73
2018-08-16T21:32:08.694Z,13.57
2018-08-16T21:34:36.692Z,12.80
2018-08-16T21:37:04.721Z,11.90
2018-08-16T21:39:32.706Z,12.03
2018-08-16T21:42:00.717Z,12.40
2018-08-16T21:44:28.685Z,12.73
2018-08-16T21:46:59.205Z,12.77
2018-08-16T21:49:27.277Z,13.20
2018-08-16T21:51:55.250Z,13.10
2018-08-16T21:54:23.238Z,12.50
2018-08-16T21:56:51.246Z,12.57
2018-08-16T21:59:19.214Z,12.23
2018-08-16T22:01:47.155Z,13.47
2018-08-16T22:04:15.276Z,13.23
2018-08-16T22:06:48.851Z,13.03
2018-08-16T22:09:16.869Z,12.83
2018-08-16T22:11:44.816Z,12.73
2018-08-16T22:14:12.808Z,12.90
2018-08-16T22:16:40.789Z,13.37
2018-08-16T22:19:08.768Z,13.13
2018-08-16T22:21:36.744Z,12.77
2018-08-16T22:24:04.719Z,12.80
2018-08-16T22:26:32.832Z,13.70
2018-08-16T22:29:00.808Z,12.70
2018-08-16T22:31:28.845Z,13.53
2018-08-16T22:33:56.849Z,14.63
2018-08-16T22:36:24.823Z,13.97
2018-08-16T22:38:52.872Z,14.13
2018-08-16T22:41:20.827Z,13.83
2018-08-16T22:43:48.804Z,14.60
2018-08-16T22:46:16.792Z,12.70
2018-08-16T22:48:44.756Z,12.93
2018-08-16T22:51:12.768Z,13.77
2018-08-16T22:53:40.743Z,12.93
2018-08-16T22:56:08.704Z,13.90
2018-08-16T22:58:38.206Z,16.33
2018-08-16T23:01:06.167Z,16.07
2018-08-16T23:03:34.129Z,15.47
2018-08-16T23:06:02.828Z,15.80
2018-08-16T23:08:30.964Z,17.13
2018-08-16T23:10:58.985Z,15.73
2018-08-16T23:13:27.225Z,17.43
2018-08-16T23:15:55.438Z,16.03
2018-08-16T23:18:23.749Z,17.23
2018-08-16T23:20:52.025Z,15.73
2018-08-16T23:23:20.305Z,16.40
2018-08-16T23:25:48.601Z,16.80
2018-08-16T23:28:16.986Z,17.73
2018-08-16T23:30:45.233Z,17.43
2018-08-16T23:33:13.478Z,17.77
2018-08-16T23:35:41.705Z,16.67
2018-08-16T23:38:09.913Z,15.53
2018-08-16T23:40:38.159Z,17.03
2018-08-16T23:43:07.285Z,17.33
2018-08-16T23:45:35.474Z,17.10
2018-08-16T23:48:15.051Z,17.20
2018-08-16T23:50:43.265Z,17.50
2018-08-16T23:53:11.535Z,17.83
2018-08-16T23:55:39.522Z,17.43
2018-08-16T23:58:07.486Z,17.70
